sensor_id;sensor_type;location;lat;lon;timestamp;pressure;altitude;pressure_sealevel;temperature;humidity
64616;BME280;51027;42.162;24.754;2023-02-19T00:01:15;99909.19;;;11.57;46.75
64616;BME280;51027;42.162;24.754;2023-02-19T00:03:41;99907.59;;;11.52;46.74
64616;BME280;51027;42.162;24.754;2023-02-19T00:06:09;99903.44;;;11.47;46.95
64616;BME280;51027;42.162;24.754;2023-02-19T00:08:36;99904.78;;;11.35;47.29
64616;BME280;51027;42.162;24.754;2023-02-19T00:11:04;99911.19;;;11.28;47.48
64616;BME280;51027;42.162;24.754;2023-02-19T00:13:30;99898.91;;;11.05;48.08
64616;BME280;51027;42.162;24.754;2023-02-19T00:16:07;99909.00;;;10.92;48.51
64616;BME280;51027;42.162;24.754;2023-02-19T00:18:33;99891.03;;;10.80;48.78
64616;BME280;51027;42.162;24.754;2023-02-19T00:20:58;99892.47;;;10.65;49.14
64616;BME280;51027;42.162;24.754;2023-02-19T00:23:24;99894.50;;;10.57;49.40
64616;BME280;51027;42.162;24.754;2023-02-19T00:25:51;99894.56;;;10.56;49.29
64616;BME280;51027;42.162;24.754;2023-02-19T00:28:16;99904.63;;;10.45;49.64
64616;BME280;51027;42.162;24.754;2023-02-19T00:30:42;99888.97;;;10.40;49.70
64616;BME280;51027;42.162;24.754;2023-02-19T00:33:07;99891.31;;;10.24;50.16
64616;BME280;51027;42.162;24.754;2023-02-19T00:35:34;99894.34;;;10.37;50.06
64616;BME280;51027;42.162;24.754;2023-02-19T00:37:59;99860.75;;;10.19;50.08
64616;BME280;51027;42.162;24.754;2023-02-19T00:40:24;99865.47;;;10.35;50.14
64616;BME280;51027;42.162;24.754;2023-02-19T00:42:50;99863.81;;;10.33;50.17
64616;BME280;51027;42.162;24.754;2023-02-19T00:45:16;99867.84;;;10.42;50.01
64616;BME280;51027;42.162;24.754;2023-02-19T00:47:41;99872.19;;;10.44;49.92
64616;BME280;51027;42.162;24.754;2023-02-19T00:50:07;99869.88;;;10.35;50.09
64616;BME280;51027;42.162;24.754;2023-02-19T00:52:33;99869.69;;;10.39;50.06
64616;BME280;51027;42.162;24.754;2023-02-19T00:54:58;99876.09;;;10.32;50.40
64616;BME280;51027;42.162;24.754;2023-02-19T00:57:24;99867.66;;;10.23;50.53
64616;BME280;51027;42.162;24.754;2023-02-19T00:59:49;99862.47;;;10.20;50.62
64616;BME280;51027;42.162;24.754;2023-02-19T01:02:14;99842.38;;;10.17;50.32
64616;BME280;51027;42.162;24.754;2023-02-19T01:04:40;99794.91;;;9.95;50.38
64616;BME280;51027;42.162;24.754;2023-02-19T01:07:05;99847.53;;;10.22;50.55
64616;BME280;51027;42.162;24.754;2023-02-19T01:09:31;99854.34;;;10.27;50.38
64616;BME280;51027;42.162;24.754;2023-02-19T01:11:56;99855.13;;;10.29;50.48
64616;BME280;51027;42.162;24.754;2023-02-19T01:14:21;99855.44;;;10.22;50.83
64616;BME280;51027;42.162;24.754;2023-02-19T01:16:47;99855.19;;;10.28;50.68
64616;BME280;51027;42.162;24.754;2023-02-19T01:19:12;99850.22;;;10.19;50.96
64616;BME280;51027;42.162;24.754;2023-02-19T01:21:38;99847.09;;;10.07;51.20
64616;BME280;51027;42.162;24.754;2023-02-19T01:24:04;99849.84;;;10.04;51.01
64616;BME280;51027;42.162;24.754;2023-02-19T01:26:31;99864.59;;;10.08;51.10
64616;BME280;51027;42.162;24.754;2023-02-19T01:29:02;99853.47;;;10.00;50.99
64616;BME280;51027;42.162;24.754;2023-02-19T01:31:28;99857.94;;;9.98;51.14
64616;BME280;51027;42.162;24.754;2023-02-19T01:33:59;99861.53;;;10.22;50.51
64616;BME280;51027;42.162;24.754;2023-02-19T01:36:25;99869.44;;;10.21;50.68
64616;BME280;51027;42.162;24.754;2023-02-19T01:38:51;99844.63;;;10.03;50.78
64616;BME280;51027;42.162;24.754;2023-02-19T01:41:19;99856.72;;;10.08;51.02
64616;BME280;51027;42.162;24.754;2023-02-19T01:46:31;99847.97;;;10.08;51.06
64616;BME280;51027;42.162;24.754;2023-02-19T01:51:35;99850.84;;;10.00;51.33
64616;BME280;51027;42.162;24.754;2023-02-19T01:54:04;99822.44;;;9.85;51.42
64616;BME280;51027;42.162;24.754;2023-02-19T01:56:32;99843.13;;;9.96;51.54
64616;BME280;51027;42.162;24.754;2023-02-19T01:58:59;99846.06;;;9.87;51.81
64616;BME280;51027;42.162;24.754;2023-02-19T02:01:25;99845.09;;;9.89;51.85
64616;BME280;51027;42.162;24.754;2023-02-19T02:03:50;99836.00;;;9.73;52.11
64616;BME280;51027;42.162;24.754;2023-02-19T02:06:22;99820.94;;;9.51;52.37
64616;BME280;51027;42.162;24.754;2023-02-19T02:08:54;99825.25;;;9.54;52.23
64616;BME280;51027;42.162;24.754;2023-02-19T02:11:41;99837.06;;;9.67;52.05
64616;BME280;51027;42.162;24.754;2023-02-19T02:14:07;99851.81;;;9.98;51.59
64616;BME280;51027;42.162;24.754;2023-02-19T02:16:40;99854.06;;;10.08;51.17
64616;BME280;51027;42.162;24.754;2023-02-19T02:30:16;99849.13;;;10.26;50.40
64616;BME280;51027;42.162;24.754;2023-02-19T02:33:11;99861.25;;;10.55;49.72
64616;BME280;51027;42.162;24.754;2023-02-19T02:35:39;99871.06;;;10.50;50.00
64616;BME280;51027;42.162;24.754;2023-02-19T02:38:08;99826.34;;;10.25;50.15
64616;BME280;51027;42.162;24.754;2023-02-19T02:40:36;99862.28;;;10.26;50.66
64616;BME280;51027;42.162;24.754;2023-02-19T02:43:05;99863.91;;;9.77;51.98
64616;BME280;51027;42.162;24.754;2023-02-19T02:45:32;99858.22;;;9.64;52.35
64616;BME280;51027;42.162;24.754;2023-02-19T02:50:40;99831.06;;;9.64;52.19
64616;BME280;51027;42.162;24.754;2023-02-19T02:53:31;99861.66;;;9.66;52.46
64616;BME280;51027;42.162;24.754;2023-02-19T02:56:18;99870.63;;;9.59;52.68
64616;BME280;51027;42.162;24.754;2023-02-19T02:58:45;99875.88;;;9.61;52.56
64616;BME280;51027;42.162;24.754;2023-02-19T03:01:17;99875.25;;;9.52;53.01
64616;BME280;51027;42.162;24.754;2023-02-19T03:04:10;99857.25;;;9.39;53.11
64616;BME280;51027;42.162;24.754;2023-02-19T03:06:37;99855.59;;;9.36;53.01
64616;BME280;51027;42.162;24.754;2023-02-19T03:11:39;99877.59;;;9.62;52.68
64616;BME280;51027;42.162;24.754;2023-02-19T03:14:38;99882.06;;;9.58;52.88
64616;BME280;51027;42.162;24.754;2023-02-19T03:20:21;99883.53;;;9.67;52.34
64616;BME280;51027;42.162;24.754;2023-02-19T03:22:48;99887.75;;;9.72;52.27
64616;BME280;51027;42.162;24.754;2023-02-19T03:25:19;99891.59;;;9.89;51.73
64616;BME280;51027;42.162;24.754;2023-02-19T03:28:06;99888.16;;;9.87;51.81
64616;BME280;51027;42.162;24.754;2023-02-19T03:30:39;99888.34;;;9.80;52.01
64616;BME280;51027;42.162;24.754;2023-02-19T03:33:08;99879.09;;;9.95;51.49
64616;BME280;51027;42.162;24.754;2023-02-19T03:35:41;99871.75;;;10.05;50.88
64616;BME280;51027;42.162;24.754;2023-02-19T03:38:13;99882.53;;;10.24;50.46
64616;BME280;51027;42.162;24.754;2023-02-19T03:41:09;99887.91;;;10.46;49.85
64616;BME280;51027;42.162;24.754;2023-02-19T03:57:18;99884.16;;;10.28;49.99
64616;BME280;51027;42.162;24.754;2023-02-19T03:59:54;99896.72;;;10.18;50.38
64616;BME280;51027;42.162;24.754;2023-02-19T04:02:42;99891.03;;;10.05;50.84
64616;BME280;51027;42.162;24.754;2023-02-19T04:05:13;99910.91;;;10.14;50.69
64616;BME280;51027;42.162;24.754;2023-02-19T04:07:44;99922.94;;;10.21;50.54
64616;BME280;51027;42.162;24.754;2023-02-19T04:10:11;99921.06;;;10.26;50.33
64616;BME280;51027;42.162;24.754;2023-02-19T04:12:40;99926.44;;;10.23;50.43
64616;BME280;51027;42.162;24.754;2023-02-19T04:15:15;99934.41;;;10.47;49.82
64616;BME280;51027;42.162;24.754;2023-02-19T04:18:04;99941.13;;;10.55;49.58
64616;BME280;51027;42.162;24.754;2023-02-19T04:20:35;99936.44;;;10.63;49.26
64616;BME280;51027;42.162;24.754;2023-02-19T04:23:03;99948.59;;;10.67;49.19
64616;BME280;51027;42.162;24.754;2023-02-19T04:25:29;99934.91;;;10.81;48.04
64616;BME280;51027;42.162;24.754;2023-02-19T04:27:57;99948.94;;;10.82;48.33
64616;BME280;51027;42.162;24.754;2023-02-19T04:30:22;99909.91;;;10.45;48.79
64616;BME280;51027;42.162;24.754;2023-02-19T04:32:48;99957.81;;;10.79;48.63
64616;BME280;51027;42.162;24.754;2023-02-19T04:35:13;99937.25;;;10.65;48.75
64616;BME280;51027;42.162;24.754;2023-02-19T04:37:39;99951.47;;;10.85;48.44
64616;BME280;51027;42.162;24.754;2023-02-19T04:40:04;99943.19;;;10.71;48.56
64616;BME280;51027;42.162;24.754;2023-02-19T04:42:30;99961.63;;;10.95;48.37
64616;BME280;51027;42.162;24.754;2023-02-19T04:44:55;99963.81;;;10.83;48.42
64616;BME280;51027;42.162;24.754;2023-02-19T04:47:20;99967.09;;;10.89;48.43
64616;BME280;51027;42.162;24.754;2023-02-19T04:49:46;99976.53;;;10.96;48.26
64616;BME280;51027;42.162;24.754;2023-02-19T04:52:11;99959.47;;;10.82;48.32
64616;BME280;51027;42.162;24.754;2023-02-19T04:54:37;99970.59;;;10.90;48.41
64616;BME280;51027;42.162;24.754;2023-02-19T04:57:02;99980.06;;;10.95;48.19
64616;BME280;51027;42.162;24.754;2023-02-19T04:59:28;99990.72;;;10.92;48.35
64616;BME280;51027;42.162;24.754;2023-02-19T05:01:53;99989.53;;;11.01;48.14
64616;BME280;51027;42.162;24.754;2023-02-19T05:04:18;99962.03;;;10.85;48.18
64616;BME280;51027;42.162;24.754;2023-02-19T05:06:44;99994.13;;;10.96;48.31
64616;BME280;51027;42.162;24.754;2023-02-19T05:09:09;99982.84;;;10.91;48.25
64616;BME280;51027;42.162;24.754;2023-02-19T05:11:35;99975.47;;;11.01;47.98
64616;BME280;51027;42.162;24.754;2023-02-19T05:14:00;99978.25;;;10.98;48.03
64616;BME280;51027;42.162;24.754;2023-02-19T05:16:26;99975.47;;;11.01;48.03
64616;BME280;51027;42.162;24.754;2023-02-19T05:18:51;99981.81;;;11.20;47.42
64616;BME280;51027;42.162;24.754;2023-02-19T05:21:17;99977.91;;;11.30;47.18
64616;BME280;51027;42.162;24.754;2023-02-19T05:23:43;99957.56;;;11.10;47.53
64616;BME280;51027;42.162;24.754;2023-02-19T05:26:15;99973.78;;;11.23;47.33
64616;BME280;51027;42.162;24.754;2023-02-19T05:28:43;99974.34;;;11.31;47.25
64616;BME280;51027;42.162;24.754;2023-02-19T05:31:10;99969.72;;;11.38;46.97
64616;BME280;51027;42.162;24.754;2023-02-19T05:33:35;99980.59;;;11.52;46.65
64616;BME280;51027;42.162;24.754;2023-02-19T05:36:06;99992.50;;;11.62;46.45
64616;BME280;51027;42.162;24.754;2023-02-19T05:38:33;99988.41;;;11.55;46.53
64616;BME280;51027;42.162;24.754;2023-02-19T05:43:34;100000.97;;;11.70;46.28
64616;BME280;51027;42.162;24.754;2023-02-19T05:46:00;100006.97;;;11.75;46.20
64616;BME280;51027;42.162;24.754;2023-02-19T05:48:26;100005.03;;;11.79;46.06
64616;BME280;51027;42.162;24.754;2023-02-19T05:50:51;99994.03;;;11.91;45.90
64616;BME280;51027;42.162;24.754;2023-02-19T05:53:16;99990.41;;;11.94;45.50
64616;BME280;51027;42.162;24.754;2023-02-19T05:55:42;100003.78;;;12.11;45.29
64616;BME280;51027;42.162;24.754;2023-02-19T05:58:07;100004.22;;;12.22;44.99
64616;BME280;51027;42.162;24.754;2023-02-19T06:00:33;100008.88;;;12.37;44.50
64616;BME280;51027;42.162;24.754;2023-02-19T06:02:59;99989.31;;;12.42;44.19
64616;BME280;51027;42.162;24.754;2023-02-19T06:05:25;100030.69;;;12.63;44.04
64616;BME280;51027;42.162;24.754;2023-02-19T06:07:50;100029.78;;;12.84;43.83
64616;BME280;51027;42.162;24.754;2023-02-19T06:10:16;100035.38;;;12.97;43.35
64616;BME280;51027;42.162;24.754;2023-02-19T06:12:41;100043.44;;;13.14;43.07
64616;BME280;51027;42.162;24.754;2023-02-19T06:15:07;100039.16;;;13.32;42.53
64616;BME280;51027;42.162;24.754;2023-02-19T06:17:33;100026.91;;;13.50;42.07
64616;BME280;51027;42.162;24.754;2023-02-19T06:19:59;100030.63;;;13.65;41.70
64616;BME280;51027;42.162;24.754;2023-02-19T06:22:25;100038.56;;;14.02;40.85
64616;BME280;51027;42.162;24.754;2023-02-19T06:24:51;100056.09;;;14.41;39.90
64616;BME280;51027;42.162;24.754;2023-02-19T06:27:16;100058.38;;;14.49;39.82
64616;BME280;51027;42.162;24.754;2023-02-19T06:29:41;100051.47;;;14.98;39.15
64616;BME280;51027;42.162;24.754;2023-02-19T06:32:07;100066.44;;;15.67;38.04
64616;BME280;51027;42.162;24.754;2023-02-19T06:34:33;100049.00;;;16.26;36.58
64616;BME280;51027;42.162;24.754;2023-02-19T06:36:59;100038.00;;;15.69;37.12
64616;BME280;51027;42.162;24.754;2023-02-19T06:39:25;100068.78;;;15.89;37.00
64616;BME280;51027;42.162;24.754;2023-02-19T06:41:54;100048.56;;;16.79;35.34
64616;BME280;51027;42.162;24.754;2023-02-19T06:44:19;100062.88;;;16.31;36.15
64616;BME280;51027;42.162;24.754;2023-02-19T06:46:45;100068.84;;;17.40;34.67
64616;BME280;51027;42.162;24.754;2023-02-19T06:49:10;100066.78;;;17.88;33.38
64616;BME280;51027;42.162;24.754;2023-02-19T06:51:36;100064.72;;;18.20;32.98
64616;BME280;51027;42.162;24.754;2023-02-19T06:54:01;100062.78;;;16.32;35.69
64616;BME280;51027;42.162;24.754;2023-02-19T06:56:37;100068.03;;;16.80;35.39
64616;BME280;51027;42.162;24.754;2023-02-19T06:59:11;100065.63;;;17.78;33.72
64616;BME280;51027;42.162;24.754;2023-02-19T07:01:39;100059.78;;;17.57;34.22
64616;BME280;51027;42.162;24.754;2023-02-19T07:04:05;100080.06;;;17.60;34.39
64616;BME280;51027;42.162;24.754;2023-02-19T07:06:32;100082.84;;;18.28;33.34
64616;BME280;51027;42.162;24.754;2023-02-19T07:08:58;100068.31;;;18.46;32.89
64616;BME280;51027;42.162;24.754;2023-02-19T07:11:25;100078.09;;;17.05;35.29
64616;BME280;51027;42.162;24.754;2023-02-19T07:13:54;100079.44;;;17.12;35.31
64616;BME280;51027;42.162;24.754;2023-02-19T07:16:21;100052.56;;;18.29;33.66
64616;BME280;51027;42.162;24.754;2023-02-19T07:18:47;100088.72;;;16.75;35.78
64616;BME280;51027;42.162;24.754;2023-02-19T07:21:13;100078.91;;;17.64;34.56
64616;BME280;51027;42.162;24.754;2023-02-19T07:23:40;100063.28;;;20.21;31.06
64616;BME280;51027;42.162;24.754;2023-02-19T07:26:10;100081.56;;;19.91;30.72
64616;BME280;51027;42.162;24.754;2023-02-19T07:28:37;100082.97;;;19.33;31.91
64616;BME280;51027;42.162;24.754;2023-02-19T07:31:03;100069.81;;;19.93;30.57
64616;BME280;51027;42.162;24.754;2023-02-19T07:33:29;100057.41;;;18.90;31.99
64616;BME280;51027;42.162;24.754;2023-02-19T07:35:54;100066.16;;;18.38;33.26
64616;BME280;51027;42.162;24.754;2023-02-19T07:38:21;100064.44;;;18.37;32.84
64616;BME280;51027;42.162;24.754;2023-02-19T07:40:55;100070.09;;;17.92;33.79
64616;BME280;51027;42.162;24.754;2023-02-19T07:43:22;100067.47;;;18.19;33.61
64616;BME280;51027;42.162;24.754;2023-02-19T07:45:47;100068.28;;;18.60;33.11
64616;BME280;51027;42.162;24.754;2023-02-19T07:48:13;100061.84;;;18.90;32.51
64616;BME280;51027;42.162;24.754;2023-02-19T07:50:39;100064.03;;;18.17;33.58
64616;BME280;51027;42.162;24.754;2023-02-19T07:53:04;100070.56;;;18.25;33.38
64616;BME280;51027;42.162;24.754;2023-02-19T07:55:31;100068.19;;;18.62;32.76
64616;BME280;51027;42.162;24.754;2023-02-19T07:57:57;100064.13;;;19.98;30.95
64616;BME280;51027;42.162;24.754;2023-02-19T08:00:23;100065.28;;;20.30;30.33
64616;BME280;51027;42.162;24.754;2023-02-19T08:02:50;100070.78;;;21.12;29.16
64616;BME280;51027;42.162;24.754;2023-02-19T08:05:30;100062.03;;;23.29;26.65
64616;BME280;51027;42.162;24.754;2023-02-19T08:07:56;100074.34;;;23.73;26.24
64616;BME280;51027;42.162;24.754;2023-02-19T08:10:22;100051.50;;;21.42;29.13
64616;BME280;51027;42.162;24.754;2023-02-19T08:13:20;100066.50;;;23.40;27.02
64616;BME280;51027;42.162;24.754;2023-02-19T08:15:54;100063.81;;;21.44;28.94
64616;BME280;51027;42.162;24.754;2023-02-19T08:18:22;100061.16;;;22.11;28.25
64616;BME280;51027;42.162;24.754;2023-02-19T08:20:49;100063.25;;;21.17;29.09
64616;BME280;51027;42.162;24.754;2023-02-19T08:23:16;100051.00;;;22.04;28.40
64616;BME280;51027;42.162;24.754;2023-02-19T08:25:41;100049.88;;;22.72;27.63
64616;BME280;51027;42.162;24.754;2023-02-19T08:28:09;100052.88;;;24.62;25.69
64616;BME280;51027;42.162;24.754;2023-02-19T08:30:36;100035.19;;;24.88;24.89
64616;BME280;51027;42.162;24.754;2023-02-19T08:33:06;100035.78;;;22.91;27.09
64616;BME280;51027;42.162;24.754;2023-02-19T08:35:36;100034.75;;;24.45;25.53
64616;BME280;51027;42.162;24.754;2023-02-19T08:38:03;100038.78;;;25.45;24.43
64616;BME280;51027;42.162;24.754;2023-02-19T08:40:28;100012.25;;;23.96;25.61
64616;BME280;51027;42.162;24.754;2023-02-19T08:42:54;100033.50;;;23.38;26.69
64616;BME280;51027;42.162;24.754;2023-02-19T08:45:19;100032.28;;;21.70;28.96
64616;BME280;51027;42.162;24.754;2023-02-19T08:47:45;100030.69;;;21.68;29.19
64616;BME280;51027;42.162;24.754;2023-02-19T08:50:11;100039.53;;;23.51;27.38
64616;BME280;51027;42.162;24.754;2023-02-19T08:52:37;100017.06;;;25.47;24.97
64616;BME280;51027;42.162;24.754;2023-02-19T08:55:04;100024.59;;;26.71;23.52
64616;BME280;51027;42.162;24.754;2023-02-19T08:57:29;100023.06;;;29.22;21.11
64616;BME280;51027;42.162;24.754;2023-02-19T08:59:55;100006.72;;;27.74;22.25
64616;BME280;51027;42.162;24.754;2023-02-19T09:02:23;100014.09;;;29.21;21.39
64616;BME280;51027;42.162;24.754;2023-02-19T09:04:49;100025.38;;;27.85;22.27
64616;BME280;51027;42.162;24.754;2023-02-19T09:07:16;100010.38;;;28.65;21.75
64616;BME280;51027;42.162;24.754;2023-02-19T09:09:42;100014.66;;;27.67;22.81
64616;BME280;51027;42.162;24.754;2023-02-19T09:12:10;99997.13;;;28.46;21.60
64616;BME280;51027;42.162;24.754;2023-02-19T09:14:36;100011.38;;;28.48;22.23
64616;BME280;51027;42.162;24.754;2023-02-19T09:17:03;100005.72;;;29.64;20.80
64616;BME280;51027;42.162;24.754;2023-02-19T09:19:30;100016.66;;;28.98;21.45
64616;BME280;51027;42.162;24.754;2023-02-19T09:21:56;99986.81;;;28.42;21.75
64616;BME280;51027;42.162;24.754;2023-02-19T09:24:22;99996.63;;;27.84;22.38
64616;BME280;51027;42.162;24.754;2023-02-19T09:26:48;99986.41;;;26.92;23.53
64616;BME280;51027;42.162;24.754;2023-02-19T09:29:15;99991.22;;;24.88;25.53
64616;BME280;51027;42.162;24.754;2023-02-19T09:31:40;99991.72;;;26.40;23.92
64616;BME280;51027;42.162;24.754;2023-02-19T09:34:07;99979.16;;;25.48;24.89
64616;BME280;51027;42.162;24.754;2023-02-19T09:36:33;99982.84;;;26.02;24.53
64616;BME280;51027;42.162;24.754;2023-02-19T09:38:59;99966.03;;;25.91;24.78
64616;BME280;51027;42.162;24.754;2023-02-19T09:41:30;99992.06;;;27.24;23.22
64616;BME280;51027;42.162;24.754;2023-02-19T09:43:57;99962.31;;;28.09;22.74
64616;BME280;51027;42.162;24.754;2023-02-19T09:46:41;99971.16;;;28.11;22.11
64616;BME280;51027;42.162;24.754;2023-02-19T09:49:13;99980.63;;;30.24;20.26
64616;BME280;51027;42.162;24.754;2023-02-19T09:51:45;99961.69;;;26.61;24.07
64616;BME280;51027;42.162;24.754;2023-02-19T09:54:19;99949.25;;;25.97;24.69
64616;BME280;51027;42.162;24.754;2023-02-19T09:56:46;99953.03;;;28.11;22.44
64616;BME280;51027;42.162;24.754;2023-02-19T09:59:19;99937.38;;;29.83;20.91
64616;BME280;51027;42.162;24.754;2023-02-19T10:01:48;99935.84;;;26.40;23.80
64616;BME280;51027;42.162;24.754;2023-02-19T10:04:18;99919.16;;;27.99;22.53
64616;BME280;51027;42.162;24.754;2023-02-19T10:06:43;99934.94;;;27.02;23.55
64616;BME280;51027;42.162;24.754;2023-02-19T10:11:39;99930.25;;;27.04;23.93
64616;BME280;51027;42.162;24.754;2023-02-19T10:14:07;99903.28;;;28.69;21.77
64616;BME280;51027;42.162;24.754;2023-02-19T10:16:39;99918.16;;;29.06;22.09
64616;BME280;51027;42.162;24.754;2023-02-19T10:19:11;99915.50;;;29.45;21.90
64616;BME280;51027;42.162;24.754;2023-02-19T10:21:37;99908.53;;;25.35;25.66
64616;BME280;51027;42.162;24.754;2023-02-19T10:24:04;99913.91;;;26.61;24.80
64616;BME280;51027;42.162;24.754;2023-02-19T10:26:31;99907.94;;;27.70;24.13
64616;BME280;51027;42.162;24.754;2023-02-19T10:29:00;99897.63;;;27.73;22.41
64616;BME280;51027;42.162;24.754;2023-02-19T10:31:26;99907.03;;;29.79;21.16
64616;BME280;51027;42.162;24.754;2023-02-19T10:33:54;99893.13;;;30.05;20.87
64616;BME280;51027;42.162;24.754;2023-02-19T10:38:53;99897.72;;;29.35;21.25
64616;BME280;51027;42.162;24.754;2023-02-19T10:41:20;99875.63;;;27.00;23.08
64616;BME280;51027;42.162;24.754;2023-02-19T10:46:32;99867.81;;;24.91;26.17
64616;BME280;51027;42.162;24.754;2023-02-19T10:49:16;99860.31;;;25.95;24.97
64616;BME280;51027;42.162;24.754;2023-02-19T10:51:44;99853.03;;;26.31;23.65
64616;BME280;51027;42.162;24.754;2023-02-19T10:54:32;99851.22;;;25.96;23.87
64616;BME280;51027;42.162;24.754;2023-02-19T11:00:19;99847.69;;;24.86;25.13
64616;BME280;51027;42.162;24.754;2023-02-19T11:02:46;99837.41;;;25.36;24.65
64616;BME280;51027;42.162;24.754;2023-02-19T11:05:16;99832.66;;;27.98;22.01
64616;BME280;51027;42.162;24.754;2023-02-19T11:07:51;99834.75;;;27.45;22.75
64616;BME280;51027;42.162;24.754;2023-02-19T11:10:37;99821.09;;;24.73;25.78
64616;BME280;51027;42.162;24.754;2023-02-19T11:13:05;99823.84;;;24.54;26.37
64616;BME280;51027;42.162;24.754;2023-02-19T11:15:33;99821.59;;;24.86;26.48
64616;BME280;51027;42.162;24.754;2023-02-19T11:18:24;99813.06;;;25.28;25.73
64616;BME280;51027;42.162;24.754;2023-02-19T11:20:56;99802.63;;;24.31;26.05
64616;BME280;51027;42.162;24.754;2023-02-19T11:23:30;99807.47;;;25.57;23.84
64616;BME280;51027;42.162;24.754;2023-02-19T11:25:59;99809.81;;;27.09;23.78
64616;BME280;51027;42.162;24.754;2023-02-19T11:28:38;99813.47;;;26.74;22.81
64616;BME280;51027;42.162;24.754;2023-02-19T11:31:23;99812.09;;;25.47;23.91
64616;BME280;51027;42.162;24.754;2023-02-19T11:36:27;99803.16;;;24.54;24.76
64616;BME280;51027;42.162;24.754;2023-02-19T11:38:54;99798.25;;;25.32;23.92
64616;BME280;51027;42.162;24.754;2023-02-19T11:44:16;99793.66;;;26.57;23.22
64616;BME280;51027;42.162;24.754;2023-02-19T11:47:20;99782.09;;;26.47;23.05
64616;BME280;51027;42.162;24.754;2023-02-19T12:00:50;99758.53;;;26.57;22.65
64616;BME280;51027;42.162;24.754;2023-02-19T12:20:25;99733.06;;;30.19;19.99
64616;BME280;51027;42.162;24.754;2023-02-19T12:36:46;99693.91;;;32.50;17.44
64616;BME280;51027;42.162;24.754;2023-02-19T12:44:45;99691.09;;;32.71;17.89
64616;BME280;51027;42.162;24.754;2023-02-19T12:47:18;99678.56;;;31.86;17.98
64616;BME280;51027;42.162;24.754;2023-02-19T12:49:51;99681.25;;;33.71;16.78
64616;BME280;51027;42.162;24.754;2023-02-19T12:52:24;99671.25;;;31.65;18.32
64616;BME280;51027;42.162;24.754;2023-02-19T12:54:53;99670.06;;;29.63;20.04
64616;BME280;51027;42.162;24.754;2023-02-19T12:57:25;99660.00;;;26.94;22.70
64616;BME280;51027;42.162;24.754;2023-02-19T13:05:05;99651.66;;;29.12;21.01
64616;BME280;51027;42.162;24.754;2023-02-19T13:07:39;99648.69;;;33.89;16.18
64616;BME280;51027;42.162;24.754;2023-02-19T13:10:35;99641.44;;;36.24;15.21
64616;BME280;51027;42.162;24.754;2023-02-19T13:13:19;99626.34;;;36.15;15.07
64616;BME280;51027;42.162;24.754;2023-02-19T13:15:49;99628.13;;;36.64;15.04
64616;BME280;51027;42.162;24.754;2023-02-19T13:18:23;99641.72;;;37.72;14.37
64616;BME280;51027;42.162;24.754;2023-02-19T13:20:50;99631.69;;;37.66;14.01
64616;BME280;51027;42.162;24.754;2023-02-19T13:23:23;99629.84;;;37.07;14.70
64616;BME280;51027;42.162;24.754;2023-02-19T13:36:47;99586.78;;;34.28;16.00
64616;BME280;51027;42.162;24.754;2023-02-19T13:39:15;99603.59;;;34.38;15.68
64616;BME280;51027;42.162;24.754;2023-02-19T13:41:49;99588.50;;;34.16;15.87
64616;BME280;51027;42.162;24.754;2023-02-19T13:44:20;99607.69;;;33.83;16.28
64616;BME280;51027;42.162;24.754;2023-02-19T13:46:49;99592.84;;;35.44;15.09
64616;BME280;51027;42.162;24.754;2023-02-19T13:51:57;99571.94;;;36.78;13.47
64616;BME280;51027;42.162;24.754;2023-02-19T13:57:19;99573.56;;;34.12;15.75
64616;BME280;51027;42.162;24.754;2023-02-19T13:59:50;99581.66;;;33.47;16.29
64616;BME280;51027;42.162;24.754;2023-02-19T14:10:03;99539.41;;;27.09;22.40
64616;BME280;51027;42.162;24.754;2023-02-19T14:12:32;99543.28;;;26.98;22.60
64616;BME280;51027;42.162;24.754;2023-02-19T14:17:48;99525.00;;;29.27;19.65
64616;BME280;51027;42.162;24.754;2023-02-19T14:27:53;99527.25;;;31.00;18.20
64616;BME280;51027;42.162;24.754;2023-02-19T14:30:21;99530.53;;;31.16;17.79
64616;BME280;51027;42.162;24.754;2023-02-19T14:32:48;99521.31;;;31.39;17.73
64616;BME280;51027;42.162;24.754;2023-02-19T14:35:24;99529.63;;;31.09;17.73
64616;BME280;51027;42.162;24.754;2023-02-19T14:37:54;99515.72;;;30.98;17.79
64616;BME280;51027;42.162;24.754;2023-02-19T14:40:26;99511.09;;;30.55;18.50
64616;BME280;51027;42.162;24.754;2023-02-19T14:42:55;99517.28;;;30.28;18.89
64616;BME280;51027;42.162;24.754;2023-02-19T14:45:22;99498.47;;;29.97;18.54
64616;BME280;51027;42.162;24.754;2023-02-19T14:47:48;99489.69;;;30.46;18.63
64616;BME280;51027;42.162;24.754;2023-02-19T14:50:20;99490.63;;;29.43;19.28
64616;BME280;51027;42.162;24.754;2023-02-19T14:52:52;99499.69;;;28.97;19.52
64616;BME280;51027;42.162;24.754;2023-02-19T14:55:37;99498.47;;;28.77;19.78
64616;BME280;51027;42.162;24.754;2023-02-19T14:58:09;99484.47;;;28.96;19.58
64616;BME280;51027;42.162;24.754;2023-02-19T15:00:40;99481.06;;;28.18;20.19
64616;BME280;51027;42.162;24.754;2023-02-19T15:03:23;99490.88;;;27.88;20.53
64616;BME280;51027;42.162;24.754;2023-02-19T15:05:55;99478.06;;;26.77;21.70
64616;BME280;51027;42.162;24.754;2023-02-19T15:08:28;99486.50;;;24.87;23.66
64616;BME280;51027;42.162;24.754;2023-02-19T15:10:55;99481.47;;;24.03;24.59
64616;BME280;51027;42.162;24.754;2023-02-19T15:13:26;99478.69;;;23.58;25.49
64616;BME280;51027;42.162;24.754;2023-02-19T15:15:52;99472.72;;;23.27;25.64
64616;BME280;51027;42.162;24.754;2023-02-19T15:18:24;99467.31;;;22.70;27.07
64616;BME280;51027;42.162;24.754;2023-02-19T15:20:57;99479.88;;;22.22;27.23
64616;BME280;51027;42.162;24.754;2023-02-19T15:23:24;99470.19;;;21.90;28.19